Time;durP1;ratioP1;P1;durP2;ratioP2;P2;SDS_P1;SDS_P2;PMS_P1;PMS_P2;Temp;Humidity;BMP_temperature;BMP_pressure;BME280_temperature;BME280_humidity;BME280_pressure;Samples;Min_cycle;Max_cycle;Signal;HPM_P1;HPM_P2
2022/12/13 00:01:15;;;;;;;6.30;3.22;;;;;;;1.70;100.00;98416.53;5106795;28;20081;-52
2022/12/13 00:03:41;;;;;;;7.53;3.10;;;;;;;1.79;100.00;98429.16;5103443;28;20126;-48
2022/12/13 00:06:08;;;;;;;4.15;2.38;;;;;;;1.83;100.00;98432.53;5079922;28;20044;-50
2022/12/13 00:08:34;;;;;;;6.78;3.70;;;;;;;1.83;100.00;98430.81;5101853;28;20036;-54
2022/12/13 00:11:00;;;;;;;5.85;3.28;;;;;;;1.86;100.00;98438.44;5078215;28;20051;-51
2022/12/13 00:13:27;;;;;;;5.15;2.90;;;;;;;1.63;100.00;98407.28;5088670;28;20040;-52
2022/12/13 00:16:02;;;;;;;7.10;3.67;;;;;;;1.81;100.00;98440.25;5087564;28;20043;-50
2022/12/13 00:18:30;;;;;;;5.68;2.65;;;;;;;1.63;100.00;98408.13;5097230;28;20043;-51
2022/12/13 00:20:56;;;;;;;7.82;4.13;;;;;;;1.80;100.00;98446.22;5072755;28;20039;-46
2022/12/13 00:23:22;;;;;;;8.25;3.90;;;;;;;1.79;100.00;98447.09;5105273;28;20039;-52
2022/12/13 00:25:48;;;;;;;9.38;4.30;;;;;;;1.47;100.00;98388.78;5108876;28;20039;-51
2022/12/13 00:28:15;;;;;;;8.90;4.22;;;;;;;1.81;100.00;98440.25;5108894;28;20054;-50
2022/12/13 00:30:41;;;;;;;7.72;3.92;;;;;;;1.81;100.00;98450.47;5090025;28;20039;-50
2022/12/13 00:33:08;;;;;;;6.22;3.10;;;;;;;1.76;100.00;98449.72;5122665;27;20093;-57
2022/12/13 00:35:40;;;;;;;5.50;3.08;;;;;;;1.79;100.00;98443.69;5075581;28;20036;-53
2022/12/13 00:38:06;;;;;;;10.07;4.68;;;;;;;1.81;100.00;98447.06;5067518;28;20105;-47
2022/12/13 00:40:33;;;;;;;6.38;3.65;;;;;;;1.84;100.00;98450.41;5057551;28;20469;-49
2022/12/13 00:42:59;;;;;;;6.85;3.45;;;;;;;1.82;100.00;98441.09;5085165;28;20039;-50
2022/12/13 00:45:25;;;;;;;7.68;4.13;;;;;;;1.85;100.00;98443.56;5074069;28;20513;-49
2022/12/13 00:47:51;;;;;;;7.75;4.00;;;;;;;1.85;100.00;98449.53;5091433;28;20035;-52
2022/12/13 00:50:17;;;;;;;9.25;4.78;;;;;;;1.86;100.00;98442.69;5100049;28;20039;-51
2022/12/13 00:52:43;;;;;;;6.53;3.70;;;;;;;1.69;100.00;98413.13;5054580;28;20036;-48
2022/12/13 00:55:09;;;;;;;7.35;3.20;;;;;;;1.90;100.00;98445.16;5089119;28;20062;-48
2022/12/13 00:57:35;;;;;;;7.22;3.83;;;;;;;1.71;100.00;98410.53;5104384;28;20523;-52
2022/12/13 01:00:03;;;;;;;8.38;4.18;;;;;;;1.94;100.00;98438.25;5093064;28;20046;-48
2022/12/13 01:02:32;;;;;;;10.05;4.53;;;;;;;1.94;100.00;98446.78;5089417;28;20028;-50
2022/12/13 01:04:58;;;;;;;7.07;3.75;;;;;;;1.94;100.00;98443.38;5100494;28;20044;-50
2022/12/13 01:07:24;;;;;;;6.63;3.63;;;;;;;1.95;100.00;98455.34;5089535;28;20515;-54
2022/12/13 01:09:51;;;;;;;7.72;4.53;;;;;;;1.95;100.00;98451.06;5089720;28;20055;-53
2022/12/13 01:12:17;;;;;;;9.70;4.32;;;;;;;1.96;100.00;98437.38;5100481;28;20043;-49
2022/12/13 01:14:43;;;;;;;12.25;5.47;;;;;;;1.97;100.00;98440.78;5109967;28;20490;-49
2022/12/13 01:17:09;;;;;;;8.85;4.70;;;;;;;2.02;100.00;98447.50;5084364;28;20035;-51
2022/12/13 01:19:35;;;;;;;10.55;4.93;;;;;;;2.03;100.00;98438.94;5106346;28;20510;-49
2022/12/13 01:22:03;;;;;;;10.07;4.93;;;;;;;2.07;100.00;98426.91;5100051;28;20035;-53
2022/12/13 01:24:30;;;;;;;11.10;5.32;;;;;;;2.08;100.00;98426.03;5092292;28;20039;-49
2022/12/13 01:26:57;;;;;;;8.35;4.65;;;;;;;2.11;100.00;98431.09;5092150;28;20048;-51
2022/12/13 01:29:24;;;;;;;10.52;4.85;;;;;;;2.09;100.00;98430.28;5077974;28;20285;-52
2022/12/13 01:31:50;;;;;;;9.25;4.80;;;;;;;2.09;100.00;98435.41;5099650;28;20419;-51
2022/12/13 01:34:18;;;;;;;7.88;3.80;;;;;;;1.93;100.00;98406.69;5102500;28;20035;-52
2022/12/13 01:36:46;;;;;;;11.13;5.22;;;;;;;2.09;100.00;98433.66;5094880;28;20031;-51
2022/12/13 01:39:13;;;;;;;6.50;3.97;;;;;;;2.11;100.00;98447.31;5091586;28;20500;-52
2022/12/13 01:41:40;;;;;;;8.23;4.68;;;;;;;2.10;100.00;98437.94;5093125;28;20027;-50
2022/12/13 01:44:27;;;;;;;11.25;5.57;;;;;;;2.10;100.00;98448.19;5111347;28;20047;-54
2022/12/13 01:46:53;;;;;;;10.02;4.70;;;;;;;1.93;100.00;98395.59;5079758;28;20085;-49
2022/12/13 01:49:18;;;;;;;9.70;5.32;;;;;;;2.10;100.00;98437.94;5101248;28;20444;-51
2022/12/13 01:51:49;;;;;;;8.50;4.25;;;;;;;2.16;100.00;98441.25;5103043;28;20032;-53
2022/12/13 01:54:18;;;;;;;9.52;5.13;;;;;;;2.14;100.00;98454.09;5092722;28;20097;-53
2022/12/13 01:56:46;;;;;;;;;;;;;;;2.14;100.00;98454.09;5090835;28;20127;-52
2022/12/13 01:59:12;;;;;;;7.18;3.83;;;;;;;2.11;100.00;98457.56;5102436;28;19927;-48
2022/12/13 02:01:39;;;;;;;8.93;4.28;;;;;;;2.12;100.00;98453.28;5090852;28;20059;-49
2022/12/13 02:04:06;;;;;;;9.00;4.53;;;;;;;1.88;100.00;98408.50;5071747;28;20504;-50
2022/12/13 02:06:40;;;;;;;8.38;4.50;;;;;;;2.18;100.00;98450.59;5082582;28;20047;-51
2022/12/13 02:09:07;;;;;;;8.23;4.15;;;;;;;1.97;100.00;98407.47;5098132;28;20078;-52
2022/12/13 02:11:35;;;;;;;9.55;4.78;;;;;;;2.20;100.00;98442.88;5108670;28;20059;-52
2022/12/13 02:14:01;;;;;;;11.13;5.25;;;;;;;2.05;100.00;98431.19;5095135;28;20116;-52
2022/12/13 02:17:10;;;;;;;9.00;5.13;;;;;;;2.22;100.00;98453.94;5099380;28;20545;-48
2022/12/13 02:20:03;;;;;;;11.20;5.38;;;;;;;2.27;100.00;98442.72;5093158;28;20519;-47
2022/12/13 02:22:54;;;;;;;12.00;5.63;;;;;;;2.27;100.00;98429.88;5090635;28;20097;-48
2022/12/13 02:25:35;;;;;;;10.23;5.40;;;;;;;2.28;100.00;98439.28;5106006;28;20050;-50
2022/12/13 02:28:16;;;;;;;9.15;4.90;;;;;;;2.24;100.00;98427.41;5111319;28;20058;-48
2022/12/13 02:30:45;;;;;;;11.98;5.78;;;;;;;2.31;100.00;98446.88;5102621;28;20507;-49
2022/12/13 02:33:25;;;;;;;11.65;6.20;;;;;;;2.31;100.00;98449.44;5112730;27;20454;-50
2022/12/13 02:36:02;;;;;;;;;;;;;;;2.31;100.00;98449.44;5099914;28;20086;-47
2022/12/13 02:38:43;;;;;;;10.85;5.53;;;;;;;2.29;100.00;98446.09;5095928;28;20345;-51
2022/12/13 02:41:15;;;;;;;8.82;4.65;;;;;;;2.26;100.00;98435.88;5110476;28;20051;-48
2022/12/13 02:44:26;;;;;;;12.20;5.47;;;;;;;2.26;100.00;98440.16;5095092;28;20507;-47
2022/12/13 02:47:09;;;;;;;12.35;6.05;;;;;;;2.23;100.00;98456.47;5088441;28;20053;-48
2022/12/13 02:49:37;;;;;;;12.38;5.15;;;;;;;2.26;100.00;98453.00;5085795;28;20031;-48
2022/12/13 02:52:06;;;;;;;13.20;5.28;;;;;;;2.25;100.00;98453.88;5107304;28;20039;-49
2022/12/13 02:54:32;;;;;;;12.93;5.60;;;;;;;2.06;100.00;98430.34;5090263;28;20122;-48
2022/12/13 02:56:59;;;;;;;11.50;6.28;;;;;;;2.27;100.00;98458.09;5110459;28;20441;-47
2022/12/13 02:59:32;;;;;;;11.65;5.63;;;;;;;2.28;100.00;98458.94;5097646;28;20061;-48
2022/12/13 03:02:21;;;;;;;11.00;5.15;;;;;;;2.30;100.00;98455.47;5111011;28;20035;-47
2022/12/13 03:08:08;;;;;;;10.73;5.38;;;;;;;2.10;100.00;98425.13;5080050;28;20054;-49
2022/12/13 03:10:47;;;;;;;10.93;5.60;;;;;;;2.25;100.00;98453.88;5110357;28;20035;-49
2022/12/13 03:13:35;;;;;;;12.32;6.10;;;;;;;2.27;100.00;98458.09;5101875;28;20047;-49
2022/12/13 03:16:07;;;;;;;12.40;5.20;;;;;;;2.29;100.00;98458.91;5069332;28;20071;-47
2022/12/13 03:18:34;;;;;;;11.43;5.68;;;;;;;2.27;100.00;98459.81;5103683;28;20035;-51
2022/12/13 03:21:02;;;;;;;9.43;4.93;;;;;;;2.26;100.00;98453.84;5094586;28;20118;-50
2022/12/13 03:23:28;;;;;;;10.07;4.72;;;;;;;2.29;100.00;98460.63;5097393;28;20039;-54
2022/12/13 03:25:57;;;;;;;13.30;5.05;;;;;;;2.24;100.00;98455.59;5110519;28;20040;-50
2022/12/13 03:28:22;;;;;;;8.45;3.97;;;;;;;2.25;100.00;98470.09;5108005;28;20074;-48
2022/12/13 03:30:49;;;;;;;11.43;4.72;;;;;;;2.19;100.00;98461.69;5110051;28;20063;-48
2022/12/13 03:33:14;;;;;;;10.18;5.22;;;;;;;2.24;100.00;98462.44;5105988;28;20470;-49
2022/12/13 03:35:41;;;;;;;10.60;5.25;;;;;;;2.21;100.00;98467.63;5091250;28;20122;-51
2022/12/13 03:38:07;;;;;;;8.73;4.95;;;;;;;2.19;100.00;98461.69;5111821;27;20036;-48
2022/12/13 03:40:33;;;;;;;10.75;5.13;;;;;;;2.19;100.00;98460.00;5108945;28;20126;-48
2022/12/13 03:43:00;;;;;;;10.10;5.40;;;;;;;2.20;100.00;98460.84;5106380;28;20088;-49
2022/12/13 03:45:26;;;;;;;10.07;5.15;;;;;;;2.23;100.00;98463.31;5061281;28;20131;-51
2022/12/13 03:47:52;;;;;;;10.45;4.95;;;;;;;2.24;100.00;98465.88;5090496;28;20525;-47
2022/12/13 03:50:18;;;;;;;10.48;4.82;;;;;;;2.22;100.00;98462.47;5089103;28;20048;-52
2022/12/13 03:52:46;;;;;;;12.23;5.82;;;;;;;2.02;100.00;98429.56;5100434;28;20070;-49
2022/12/13 03:55:12;;;;;;;9.60;5.00;;;;;;;2.15;100.00;98465.22;5094810;28;20054;-50
2022/12/13 03:57:38;;;;;;;13.00;4.82;;;;;;;1.98;100.00;98429.66;5096879;28;20357;-50
2022/12/13 04:00:05;;;;;;;9.90;4.95;;;;;;;2.12;100.00;98460.97;5103192;28;20036;-53
2022/12/13 04:02:38;;;;;;;12.50;5.80;;;;;;;2.11;100.00;98454.16;5108326;28;20073;-48
2022/12/13 04:05:04;;;;;;;10.13;5.07;;;;;;;2.11;100.00;98455.00;5087290;28;20036;-50
2022/12/13 04:07:30;;;;;;;9.68;5.22;;;;;;;1.97;100.00;98421.13;5088616;28;20047;-53
2022/12/13 04:09:56;;;;;;;9.93;5.20;;;;;;;2.19;100.00;98452.28;5097924;28;20039;-49
2022/12/13 04:15:07;;;;;;;11.55;5.75;;;;;;;2.19;100.00;98459.13;5091858;28;20043;-46
2022/12/13 04:17:33;;;;;;;10.23;5.20;;;;;;;2.01;100.00;98439.84;5099873;28;20118;-48
2022/12/13 04:19:59;;;;;;;11.93;5.78;;;;;;;1.97;100.00;98443.34;5081837;28;20178;-47
2022/12/13 04:22:25;;;;;;;9.07;4.78;;;;;;;2.04;100.00;98443.16;5087549;28;20713;-48
2022/12/13 04:24:51;;;;;;;10.50;5.35;;;;;;;2.17;100.00;98458.31;5088932;28;20084;-50
2022/12/13 04:27:17;;;;;;;11.93;5.55;;;;;;;2.13;100.00;98468.66;5090703;28;20044;-47
2022/12/13 04:29:42;;;;;;;8.52;5.03;;;;;;;2.11;100.00;98461.84;5066567;28;20036;-51
2022/12/13 04:32:09;;;;;;;10.63;5.32;;;;;;;2.09;100.00;98459.31;5085101;28;20133;-48
2022/12/13 04:34:35;;;;;;;11.27;6.03;;;;;;;2.12;100.00;98473.78;5099953;28;20052;-47
2022/12/13 04:37:00;;;;;;;13.00;5.95;;;;;;;2.18;100.00;98470.25;5093256;28;20607;-50
2022/12/13 04:39:26;;;;;;;11.63;5.88;;;;;;;2.19;100.00;98474.53;5088304;28;20522;-51
2022/12/13 04:41:52;;;;;;;12.38;5.55;;;;;;;2.17;100.00;98469.41;5090993;28;20512;-51
2022/12/13 04:44:18;;;;;;;11.30;5.50;;;;;;;2.26;100.00;98481.19;5104911;28;20511;-52
2022/12/13 04:46:44;;;;;;;10.45;5.38;;;;;;;2.26;100.00;98468.38;5101743;28;20044;-49
2022/12/13 04:49:10;;;;;;;10.65;5.68;;;;;;;2.24;100.00;98475.28;5108470;28;20064;-51
2022/12/13 04:51:36;;;;;;;10.27;5.15;;;;;;;2.24;100.00;98468.44;5093474;28;20122;-46
2022/12/13 04:54:02;;;;;;;10.10;5.35;;;;;;;2.10;100.00;98437.09;5087374;28;20046;-48
2022/12/13 04:56:28;;;;;;;9.95;5.50;;;;;;;2.29;100.00;98468.31;5093165;28;20047;-46
2022/12/13 04:58:55;;;;;;;14.07;5.57;;;;;;;2.08;100.00;98436.28;5107185;28;20161;-47
2022/12/13 05:01:21;;;;;;;10.93;5.60;;;;;;;2.28;100.00;98477.75;5121594;27;20503;-49
2022/12/13 05:03:46;;;;;;;10.93;5.80;;;;;;;2.30;100.00;98475.16;5087596;28;20046;-48
2022/12/13 05:06:13;;;;;;;8.95;5.22;;;;;;;2.29;100.00;98487.13;5086739;28;20044;-53
2022/12/13 05:08:40;;;;;;;9.02;4.97;;;;;;;2.30;100.00;98495.66;5088967;28;20496;-54
2022/12/13 05:11:07;;;;;;;11.23;5.82;;;;;;;2.29;100.00;98489.69;5089557;28;20450;-54
2022/12/13 05:13:33;;;;;;;10.68;5.45;;;;;;;2.30;100.00;98480.28;5088166;28;20040;-52
2022/12/13 05:16:02;;;;;;;10.75;5.63;;;;;;;2.28;100.00;98485.44;5087643;28;20050;-49
2022/12/13 05:18:28;;;;;;;11.93;5.35;;;;;;;2.29;100.00;98489.69;5086709;28;20702;-52
2022/12/13 05:20:55;;;;;;;8.20;4.35;;;;;;;2.30;100.00;98482.84;5068982;28;20354;-49
2022/12/13 05:23:23;;;;;;;10.25;5.90;;;;;;;2.31;100.00;98479.38;5089236;28;20040;-50
2022/12/13 05:25:50;;;;;;;11.27;5.57;;;;;;;2.38;100.00;98475.81;5067730;28;20622;-50
2022/12/13 05:28:15;;;;;;;10.80;4.75;;;;;;;2.42;100.00;98487.69;5093898;28;20131;-52
2022/12/13 05:30:42;;;;;;;10.18;5.03;;;;;;;2.04;100.00;98425.22;5087671;28;20111;-50
2022/12/13 05:33:09;;;;;;;13.07;5.82;;;;;;;2.41;100.00;98486.00;5088541;28;20457;-52
2022/12/13 05:35:36;;;;;;;9.48;5.40;;;;;;;2.45;100.00;98491.06;5080683;28;20040;-51
2022/12/13 05:38:03;;;;;;;11.82;5.80;;;;;;;2.45;100.00;98488.50;5086964;28;20043;-50
2022/12/13 05:40:30;;;;;;;9.70;4.88;;;;;;;2.47;100.00;98491.84;5086722;28;20680;-51
2022/12/13 05:42:57;;;;;;;9.45;5.25;;;;;;;2.48;100.00;98497.84;5105656;28;20126;-54
2022/12/13 05:45:23;;;;;;;11.05;5.53;;;;;;;2.46;100.00;98491.91;5101508;28;20069;-51
2022/12/13 05:47:49;;;;;;;8.00;4.80;;;;;;;2.44;100.00;98497.06;5098403;28;20043;-53
2022/12/13 05:50:16;;;;;;;8.95;5.07;;;;;;;2.49;100.00;98497.81;5104145;28;20511;-51
2022/12/13 05:52:44;;;;;;;10.32;5.20;;;;;;;2.49;100.00;98492.69;5093974;28;20044;-51
2022/12/13 05:55:10;;;;;;;11.73;5.68;;;;;;;2.48;100.00;98493.56;5071249;28;20067;-53
2022/12/13 05:57:37;;;;;;;11.10;5.00;;;;;;;2.54;100.00;98496.00;5080032;28;20515;-49
2022/12/13 06:00:04;;;;;;;10.27;5.25;;;;;;;2.53;100.00;98488.31;5105437;28;20044;-50
2022/12/13 06:02:39;;;;;;;8.20;4.70;;;;;;;2.54;100.00;98490.88;5076155;28;20388;-50
2022/12/13 06:05:06;;;;;;;10.80;4.88;;;;;;;2.53;100.00;98494.28;5102003;28;20044;-52
2022/12/13 06:07:32;;;;;;;9.40;4.90;;;;;;;2.59;100.00;98495.03;5093094;28;20049;-51
2022/12/13 06:09:58;;;;;;;10.25;5.20;;;;;;;2.61;100.00;98493.31;5092377;28;20041;-54
2022/12/13 06:12:24;;;;;;;9.48;4.90;;;;;;;2.65;100.00;98500.88;5090931;27;20115;-52
2022/12/13 06:14:50;;;;;;;10.77;5.13;;;;;;;2.63;100.00;98492.38;5083813;28;20040;-50
2022/12/13 06:17:16;;;;;;;9.07;5.05;;;;;;;2.65;100.00;98498.31;5102941;28;20053;-49
2022/12/13 06:19:42;;;;;;;9.98;5.20;;;;;;;2.70;100.00;98498.22;5096158;28;20036;-50
2022/12/13 06:22:08;;;;;;;11.02;5.57;;;;;;;2.74;100.00;98494.69;5087116;28;20175;-52
2022/12/13 06:24:34;;;;;;;7.55;4.53;;;;;;;2.72;100.00;98493.91;5094554;28;20542;-53
2022/12/13 06:27:01;;;;;;;10.30;5.15;;;;;;;2.68;100.00;98487.97;5099346;28;20107;-52
2022/12/13 06:29:27;;;;;;;12.25;5.38;;;;;;;2.56;100.00;98467.75;5104792;28;20050;-50
2022/12/13 06:31:55;;;;;;;9.50;5.35;;;;;;;2.72;100.00;98499.84;5096983;28;20039;-54
2022/12/13 06:34:21;;;;;;;9.48;4.53;;;;;;;2.52;100.00;98464.38;5071641;28;20047;-53
2022/12/13 06:36:47;;;;;;;11.25;5.80;;;;;;;2.71;100.00;98497.34;5070645;28;20041;-50
2022/12/13 06:39:14;;;;;;;11.35;6.13;;;;;;;2.75;100.00;98510.06;5097375;28;20577;-51
2022/12/13 06:41:40;;;;;;;10.70;5.70;;;;;;;2.77;100.00;98512.63;5077684;28;20056;-53
2022/12/13 06:44:07;;;;;;;11.10;5.03;;;;;;;2.79;100.00;98505.72;5089824;28;20058;-50
2022/12/13 06:46:33;;;;;;;11.75;5.45;;;;;;;2.83;100.00;98512.44;5091373;28;20122;-53
2022/12/13 06:48:59;;;;;;;9.20;4.97;;;;;;;2.67;100.00;98493.16;5090152;28;20031;-52
2022/12/13 06:51:25;;;;;;;9.80;5.57;;;;;;;2.83;100.00;98526.13;5106937;28;20461;-56
2022/12/13 06:53:50;;;;;;;12.07;5.85;;;;;;;2.84;100.00;98529.53;5087913;28;20051;-50
2022/12/13 06:56:17;;;;;;;10.98;5.43;;;;;;;2.87;100.00;98535.47;5101585;28;20431;-50
2022/12/13 06:58:43;;;;;;;9.35;5.20;;;;;;;2.90;100.00;98540.53;5101581;28;20147;-49
2022/12/13 07:01:12;;;;;;;9.40;4.82;;;;;;;2.89;100.00;98543.13;5079100;28;20139;-49
2022/12/13 07:03:38;;;;;;;10.68;6.00;;;;;;;2.93;100.00;98549.91;5089245;28;20047;-51
2022/12/13 07:06:12;;;;;;;9.80;5.07;;;;;;;2.95;100.00;98553.25;5091192;28;20048;-53
2022/12/13 07:08:39;;;;;;;11.52;5.40;;;;;;;2.92;100.00;98563.59;5086245;28;20036;-51
2022/12/13 07:11:05;;;;;;;8.85;5.32;;;;;;;2.92;100.00;98555.91;5120164;27;20036;-54
2022/12/13 07:13:33;;;;;;;15.55;5.75;;;;;;;2.96;100.00;98568.63;5080552;28;20044;-51
2022/12/13 07:15:59;;;;;;;12.48;5.60;;;;;;;2.86;100.00;98546.63;5088744;28;20126;-56
2022/12/13 07:18:28;;;;;;;11.07;5.82;;;;;;;3.00;100.00;98561.72;5084571;28;20075;-53
2022/12/13 07:20:54;;;;;;;9.70;5.03;;;;;;;3.04;100.00;98567.59;5094236;28;20047;-52
2022/12/13 07:23:20;;;;;;;13.18;5.93;;;;;;;3.05;100.00;98562.44;5090019;28;20048;-53
2022/12/13 07:25:53;;;;;;;12.30;5.30;;;;;;;3.09;100.00;98573.50;5096461;28;20051;-52
2022/12/13 07:28:20;;;;;;;10.27;5.00;;;;;;;3.10;100.00;98577.75;5084480;28;20059;-48
2022/12/13 07:30:46;;;;;;;12.38;5.65;;;;;;;3.11;100.00;98571.75;5071159;28;20044;-51
2022/12/13 07:33:13;;;;;;;12.70;5.80;;;;;;;3.16;100.00;98581.03;5083622;28;20127;-54
2022/12/13 07:35:39;;;;;;;9.63;5.20;;;;;;;3.21;100.00;98580.94;5088171;28;20036;-53
2022/12/13 07:38:06;;;;;;;8.88;5.50;;;;;;;3.25;100.00;98570.53;5090542;28;20047;-53
2022/12/13 07:40:33;;;;;;;11.40;5.72;;;;;;;3.05;100.00;98541.06;5088132;28;20032;-54
2022/12/13 07:42:59;;;;;;;10.40;4.10;;;;;;;3.21;100.00;98568.09;5087469;28;20043;-52
2022/12/13 07:45:25;;;;;;;11.07;5.38;;;;;;;3.08;100.00;98549.56;5100748;28;20139;-53
2022/12/13 07:47:51;;;;;;;11.48;5.38;;;;;;;3.09;100.00;98555.53;5071490;28;20143;-53
2022/12/13 07:50:19;;;;;;;10.50;5.80;;;;;;;3.19;100.00;98575.00;5079326;28;20078;-52
2022/12/13 07:52:49;;;;;;;9.18;4.80;;;;;;;3.24;100.00;98589.44;5072676;28;20109;-53
2022/12/13 07:55:16;;;;;;;10.88;5.45;;;;;;;3.25;100.00;98598.78;5080336;28;20865;-52
2022/12/13 07:57:43;;;;;;;11.88;5.32;;;;;;;3.28;100.00;98582.47;5089905;28;20067;-55
2022/12/13 08:00:10;;;;;;;7.63;4.55;;;;;;;3.07;100.00;98545.31;5088584;28;20050;-53
2022/12/13 08:02:40;;;;;;;12.35;5.10;;;;;;;3.29;100.00;98584.19;5088794;28;20036;-52
2022/12/13 08:05:07;;;;;;;7.80;4.65;;;;;;;3.27;100.00;98589.34;5091499;28;20046;-54
2022/12/13 08:07:33;;;;;;;11.60;4.88;;;;;;;3.29;100.00;98589.31;5100730;28;20452;-50
2022/12/13 08:09:59;;;;;;;10.68;5.57;;;;;;;3.19;100.00;98562.97;5053789;28;20455;-54
2022/12/13 08:12:28;;;;;;;9.65;4.57;;;;;;;3.41;100.00;98583.88;5069649;28;20044;-52
2022/12/13 08:14:54;;;;;;;8.60;4.28;;;;;;;3.37;100.00;98592.53;5104765;28;20051;-51
2022/12/13 08:17:20;;;;;;;11.23;5.32;;;;;;;3.13;100.00;98560.56;5089191;28;20042;-52
2022/12/13 08:19:46;;;;;;;11.20;5.20;;;;;;;3.34;100.00;98595.19;5105321;27;20088;-56
2022/12/13 08:22:13;;;;;;;14.65;5.65;;;;;;;3.42;100.00;98606.13;5065336;28;20046;-56
2022/12/13 08:24:39;;;;;;;8.75;5.00;;;;;;;3.41;100.00;98602.72;5086938;28;20043;-54
2022/12/13 08:27:05;;;;;;;9.73;4.60;;;;;;;3.40;100.00;98602.75;5087395;28;20039;-53
2022/12/13 08:29:33;;;;;;;14.88;5.43;;;;;;;3.40;100.00;98598.44;5088665;28;20047;-56
2022/12/13 08:31:59;;;;;;;9.15;5.38;;;;;;;3.18;100.00;98570.72;5087398;28;20530;-55
2022/12/13 08:34:26;;;;;;;9.18;5.13;;;;;;;3.34;100.00;98606.31;5088074;28;20044;-51
2022/12/13 08:36:52;;;;;;;12.75;5.30;;;;;;;3.23;100.00;98586.88;5081763;28;20043;-51
2022/12/13 08:39:18;;;;;;;12.18;5.72;;;;;;;3.36;100.00;98603.69;5088650;28;20047;-51
2022/12/13 08:41:44;;;;;;;13.60;5.75;;;;;;;3.40;100.00;98613.03;5085721;28;20040;-56
2022/12/13 08:44:10;;;;;;;12.52;5.63;;;;;;;3.16;100.00;98563.06;5086572;28;20142;-54
2022/12/13 08:46:36;;;;;;;12.02;5.18;;;;;;;3.44;100.00;98622.34;5071342;28;20044;-52
2022/12/13 08:49:02;;;;;;;9.63;5.13;;;;;;;3.46;100.00;98632.56;5088692;28;20113;-52
2022/12/13 08:51:28;;;;;;;10.13;5.32;;;;;;;3.41;100.00;98630.97;5089304;28;20031;-53
2022/12/13 08:53:54;;;;;;;10.05;4.95;;;;;;;3.34;100.00;98637.13;5087925;28;20449;-54
2022/12/13 08:56:20;;;;;;;4.00;2.53;;;;;;;3.23;100.00;98640.81;5089387;28;20181;-52
2022/12/13 08:58:50;;;;;;;11.43;5.03;;;;;;;2.93;100.00;98606.38;5086499;28;20539;-55
2022/12/13 09:01:17;;;;;;;8.23;3.70;;;;;;;3.04;100.00;98649.75;5096102;28;20055;-48
2022/12/13 09:03:44;;;;;;;5.30;3.20;;;;;;;2.96;100.00;98644.81;5087838;28;20063;-53
2022/12/13 09:06:12;;;;;;;6.03;3.17;;;;;;;2.90;100.00;98656.03;5083919;28;20040;-51
2022/12/13 09:08:38;;;;;;;9.73;3.85;;;;;;;2.84;100.00;98651.03;5068915;28;20040;-54
2022/12/13 09:11:06;;;;;;;11.75;4.35;;;;;;;2.85;100.00;98663.00;5077164;28;20127;-50
2022/12/13 09:13:33;;;;;;;13.20;4.30;;;;;;;2.84;100.00;98663.00;5087850;28;20624;-53
2022/12/13 09:16:08;;;;;;;10.90;4.70;;;;;;;2.81;100.00;98671.63;5099285;28;20154;-53
2022/12/13 09:18:34;;;;;;;10.98;4.55;;;;;;;2.75;100.00;98663.19;5086389;28;20035;-50
2022/12/13 09:21:05;;;;;;;6.43;2.90;;;;;;;2.70;100.00;98678.69;5075267;28;20040;-48
2022/12/13 09:23:31;;;;;;;6.60;3.17;;;;;;;2.64;100.00;98665.97;5070284;28;20036;-54
2022/12/13 09:25:59;;;;;;;8.68;3.95;;;;;;;2.64;100.00;98671.09;5104353;28;20040;-51
2022/12/13 09:28:26;;;;;;;6.80;3.05;;;;;;;2.49;100.00;98641.44;5107172;28;20047;-53
2022/12/13 09:30:52;;;;;;;2.33;1.20;;;;;;;2.50;100.00;98650.00;5092769;28;20532;-51
2022/12/13 09:33:19;;;;;;;5.47;2.65;;;;;;;2.55;100.00;98672.13;5087073;28;20071;-51
2022/12/13 09:35:45;;;;;;;6.05;2.50;;;;;;;2.52;100.00;98679.84;5125750;27;20067;-50
2022/12/13 09:38:11;;;;;;;4.65;2.05;;;;;;;2.48;100.00;98675.66;5072330;28;20028;-54
2022/12/13 09:40:38;;;;;;;3.00;1.83;;;;;;;2.50;100.00;98673.09;5069774;28;20036;-49
2022/12/13 09:43:04;;;;;;;4.10;1.90;;;;;;;2.62;100.00;98672.84;5095211;28;20040;-50
2022/12/13 09:45:31;;;;;;;5.47;2.55;;;;;;;2.68;100.00;98675.28;5103998;28;20051;-54
2022/12/13 09:47:58;;;;;;;3.97;1.60;;;;;;;2.79;100.00;98682.78;5105748;28;20155;-54
2022/12/13 09:50:33;;;;;;;4.75;1.65;;;;;;;2.77;100.00;98682.84;5103632;28;20052;-50
2022/12/13 09:53:02;;;;;;;3.00;1.40;;;;;;;2.67;100.00;98683.03;5071477;28;20051;-50
2022/12/13 09:55:41;;;;;;;4.55;1.60;;;;;;;2.59;100.00;98696.00;5090863;28;20040;-51
2022/12/13 09:58:27;;;;;;;4.20;2.55;;;;;;;2.53;100.00;98694.38;5090275;28;20063;-49
2022/12/13 10:00:55;;;;;;;2.88;1.55;;;;;;;2.54;100.00;98696.09;5090930;28;20036;-50
2022/12/13 10:03:23;;;;;;;4.65;2.78;;;;;;;2.33;100.00;98665.69;5093648;28;20035;-54
2022/12/13 10:06:22;;;;;;;2.60;1.30;;;;;;;2.40;100.00;98704.91;5090045;28;20136;-49
2022/12/13 10:08:55;;;;;;;3.22;2.03;;;;;;;2.06;100.00;98673.84;5042548;28;20066;-54
2022/12/13 10:11:22;;;;;;;4.65;2.35;;;;;;;2.09;100.00;98666.13;5077024;28;20037;-54
2022/12/13 10:13:55;;;;;;;8.55;2.80;;;;;;;2.20;100.00;98699.28;5092214;28;20109;-56
2022/12/13 10:16:36;;;;;;;6.75;3.05;;;;;;;2.32;100.00;98714.44;5091389;28;20043;-51
2022/12/13 10:19:15;;;;;;;5.72;2.67;;;;;;;2.12;100.00;98701.94;5088049;28;20082;-50
2022/12/13 10:21:43;;;;;;;7.68;3.20;;;;;;;1.84;100.00;98650.28;5090270;28;20044;-53
2022/12/13 10:24:21;;;;;;;8.40;3.60;;;;;;;2.19;100.00;98715.50;5090731;28;20085;-53
2022/12/13 10:26:47;;;;;;;4.75;2.40;;;;;;;2.20;100.00;98709.53;5092612;28;20598;-53
2022/12/13 10:29:13;;;;;;;6.43;3.40;;;;;;;1.98;100.00;98679.09;5093273;28;20039;-55
2022/12/13 10:31:47;;;;;;;7.03;3.22;;;;;;;1.90;100.00;98664.72;5110447;28;20067;-53
2022/12/13 10:34:34;;;;;;;4.75;2.45;;;;;;;2.20;100.00;98718.03;5106650;27;20047;-51
2022/12/13 10:37:21;;;;;;;9.82;1.98;;;;;;;2.15;100.00;98726.69;5090449;28;20127;-53
2022/12/13 10:39:47;;;;;;;5.40;2.42;;;;;;;1.93;100.00;98701.41;5093997;28;20426;-54
2022/12/13 10:42:15;;;;;;;6.28;3.15;;;;;;;2.06;100.00;98715.69;5096234;28;20046;-52
2022/12/13 10:44:42;;;;;;;6.18;2.95;;;;;;;1.94;100.00;98703.06;5098906;28;20063;-55
2022/12/13 10:47:21;;;;;;;5.38;2.15;;;;;;;2.15;100.00;98742.09;5095278;28;20088;-53
2022/12/13 10:49:54;;;;;;;8.02;3.00;;;;;;;2.12;100.00;98735.28;5073856;28;20884;-52
2022/12/13 10:52:27;;;;;;;9.07;3.25;;;;;;;2.16;100.00;98736.91;5102092;28;20039;-49
2022/12/13 10:54:54;;;;;;;6.90;3.03;;;;;;;2.18;100.00;98745.44;5094701;28;20048;-52
2022/12/13 10:57:21;;;;;;;8.40;3.80;;;;;;;2.03;100.00;98709.78;5091263;28;20213;-48
2022/12/13 10:59:49;;;;;;;5.68;2.17;;;;;;;2.13;100.00;98729.28;5077750;28;20512;-49
2022/12/13 11:02:33;;;;;;;5.80;2.97;;;;;;;2.22;100.00;98751.34;5095263;28;20035;-52
2022/12/13 11:05:22;;;;;;;8.15;3.75;;;;;;;2.19;100.00;98736.03;5091078;28;20044;-53
2022/12/13 11:07:48;;;;;;;9.52;4.03;;;;;;;2.17;100.00;98719.81;5089840;28;20078;-53
2022/12/13 11:10:20;;;;;;;10.77;3.95;;;;;;;2.32;100.00;98745.19;5079449;28;20054;-54
2022/12/13 11:12:47;;;;;;;9.10;4.55;;;;;;;1.98;100.00;98696.19;5085144;28;20122;-51
2022/12/13 11:15:18;;;;;;;8.65;3.55;;;;;;;2.34;100.00;98746.03;5106127;28;20043;-50
2022/12/13 11:18:00;;;;;;;8.85;4.82;;;;;;;2.13;100.00;98744.66;5071334;28;20052;-51
2022/12/13 11:20:35;;;;;;;8.85;4.30;;;;;;;1.98;100.00;98729.53;5069048;28;20045;-48
2022/12/13 11:23:06;;;;;;;6.75;3.28;;;;;;;1.89;100.00;98727.91;5108964;28;20039;-52
2022/12/13 11:25:44;;;;;;;4.57;2.60;;;;;;;1.98;100.00;98773.09;5107554;28;20035;-50
2022/12/13 11:28:37;;;;;;;8.00;4.47;;;;;;;1.95;100.00;98776.53;5087031;28;20039;-50
2022/12/13 11:31:31;;;;;;;6.03;3.22;;;;;;;1.87;100.00;98798.03;5072281;28;20135;-51
2022/12/13 11:34:27;;;;;;;6.55;3.65;;;;;;;1.82;100.00;98781.88;5074155;28;20223;-53
2022/12/13 11:37:25;;;;;;;10.43;4.30;;;;;;;1.84;100.00;98792.91;5106100;28;20040;-53
2022/12/13 11:40:09;;;;;;;7.68;3.22;;;;;;;1.80;100.00;98810.06;5090295;28;20101;-53
2022/12/13 11:42:54;;;;;;;8.00;3.95;;;;;;;1.69;100.00;98810.19;5081300;28;20043;-50
2022/12/13 11:45:27;;;;;;;6.55;3.55;;;;;;;1.67;100.00;98799.13;5070878;28;20047;-52